Schedule Details


Flight Number: CTN474
Departure: Kastela (LDSP) at 15:15
Arrival: Charles-de-gaulle (LFPG) at 17:30
Route: ZDA UN606 PUL P11 ROTAR L611 SUXAN UL613 LUL G4 RLP

Weather Information
LDSP 221600Z 11009KT 080V140 CAVOK 22/13 Q1017 NOSIG
LFPG 221600Z 18010KT 9999 SCT010 BKN130 17/15 Q1010 NOSIG
Schedule Frequency

Route Map